createdAt,value
2022-11-17T03:32:21.805Z,1.89
2022-11-17T03:35:05.907Z,3.23
2022-11-17T03:37:33.846Z,4.39
2022-11-17T03:40:07.926Z,4.67
2022-11-17T03:42:35.836Z,4.64
2022-11-17T03:45:06.906Z,4.51
2022-11-17T03:47:34.003Z,4.34
2022-11-17T03:50:09.768Z,4.88
2022-11-17T03:52:38.063Z,5.54
2022-11-17T03:55:05.690Z,5.62
2022-11-17T03:57:56.632Z,5.43
2022-11-17T04:00:23.720Z,5.08
2022-11-17T04:02:54.879Z,4.82
2022-11-17T04:05:22.057Z,5.23
2022-11-17T04:07:49.241Z,5.79
2022-11-17T04:10:19.187Z,5.84
2022-11-17T04:13:05.282Z,5.65
2022-11-17T04:15:51.997Z,5.40
2022-11-17T04:18:20.183Z,5.13
2022-11-17T04:20:55.702Z,4.88
2022-11-17T04:23:23.078Z,5.39
2022-11-17T04:26:10.502Z,5.97
2022-11-17T04:28:39.805Z,5.98
2022-11-17T04:31:15.298Z,5.72
2022-11-17T04:33:46.544Z,5.39
2022-11-17T04:36:15.942Z,5.08
2022-11-17T04:38:43.951Z,4.81
2022-11-17T04:41:30.336Z,5.27
2022-11-17T04:43:57.585Z,5.88
2022-11-17T04:46:25.445Z,5.89
2022-11-17T04:48:54.323Z,5.67
2022-11-17T04:51:21.656Z,5.41
2022-11-17T04:53:48.881Z,5.14
2022-11-17T04:56:15.884Z,4.88
2022-11-17T04:58:43.261Z,5.21
2022-11-17T05:01:13.085Z,5.73
2022-11-17T05:03:46.482Z,5.71
2022-11-17T05:06:19.488Z,5.42
2022-11-17T05:08:47.799Z,5.13
2022-11-17T05:11:33.688Z,4.87
2022-11-17T05:14:00.696Z,4.64
2022-11-17T05:16:46.582Z,5.21
2022-11-17T05:19:24.888Z,5.84
2022-11-17T05:21:51.967Z,5.72
2022-11-17T05:24:19.371Z,5.50
2022-11-17T05:26:47.284Z,5.25
2022-11-17T05:29:16.227Z,4.97
2022-11-17T05:31:43.646Z,4.69
2022-11-17T05:34:12.627Z,5.06
2022-11-17T05:36:40.131Z,5.62
2022-11-17T05:39:07.441Z,5.69
2022-11-17T05:41:34.672Z,5.53
2022-11-17T05:44:01.807Z,5.21
2022-11-17T05:46:28.934Z,4.94
2022-11-17T05:48:55.949Z,4.54
2022-11-17T05:51:23.584Z,4.95
2022-11-17T05:53:50.750Z,5.53
2022-11-17T05:56:36.639Z,5.55
2022-11-17T05:59:10.101Z,5.36
2022-11-17T06:01:38.620Z,5.00
2022-11-17T06:04:06.982Z,4.73
2022-11-17T06:06:34.482Z,4.55
2022-11-17T06:09:01.610Z,5.00
2022-11-17T06:11:28.579Z,5.44
2022-11-17T06:13:55.690Z,5.45
2022-11-17T06:16:24.157Z,5.21
2022-11-17T06:19:00.405Z,4.97
2022-11-17T06:21:37.925Z,4.64
2022-11-17T06:24:14.339Z,4.44
2022-11-17T06:26:41.973Z,5.04
2022-11-17T06:29:09.962Z,5.68
2022-11-17T06:31:37.192Z,5.75
2022-11-17T06:34:04.648Z,5.49
2022-11-17T06:36:31.980Z,4.96
2022-11-17T06:38:59.404Z,4.64
2022-11-17T06:41:26.427Z,4.48
2022-11-17T06:43:53.413Z,4.87
2022-11-17T06:46:20.776Z,5.28
2022-11-17T06:48:54.535Z,5.31
2022-11-17T06:51:22.061Z,5.18
2022-11-17T06:53:51.986Z,4.95
2022-11-17T06:56:19.133Z,4.63
2022-11-17T06:58:46.441Z,4.44
2022-11-17T07:01:14.516Z,4.90
2022-11-17T07:03:43.159Z,5.51
2022-11-17T07:06:11.011Z,5.61
2022-11-17T07:08:39.485Z,5.34
2022-11-17T07:11:10.298Z,5.05
2022-11-17T07:13:38.028Z,4.78
2022-11-17T07:16:12.778Z,4.52
2022-11-17T07:18:43.381Z,4.92
2022-11-17T07:21:11.802Z,5.11
2022-11-17T07:23:39.764Z,5.30
2022-11-17T07:26:08.200Z,5.19
2022-11-17T07:28:36.123Z,4.92
2022-11-17T07:31:05.389Z,4.72
2022-11-17T07:33:32.576Z,4.48
2022-11-17T07:36:12.212Z,4.93
2022-11-17T07:38:40.213Z,5.56
2022-11-17T07:41:08.946Z,5.61
2022-11-17T07:43:36.208Z,5.38
2022-11-17T07:46:04.921Z,5.12
2022-11-17T07:48:35.850Z,4.80
2022-11-17T07:51:03.981Z,4.47
2022-11-17T07:53:32.591Z,4.24
2022-11-17T07:56:10.083Z,4.71
2022-11-17T07:58:38.042Z,5.36
2022-11-17T08:01:06.794Z,5.48
2022-11-17T08:03:34.033Z,5.32
2022-11-17T08:06:05.779Z,5.03
2022-11-17T08:08:33.112Z,4.76
2022-11-17T08:11:05.301Z,4.53
2022-11-17T08:13:32.968Z,4.33
2022-11-17T08:16:19.897Z,5.02
2022-11-17T08:18:52.123Z,5.63
2022-11-17T08:21:20.218Z,5.72
2022-11-17T08:23:53.049Z,5.52
2022-11-17T08:26:24.028Z,5.30
2022-11-17T08:28:56.704Z,5.10
2022-11-17T09:39:15.479Z,2.01
2022-11-17T09:41:46.850Z,3.24
2022-11-17T09:44:23.726Z,4.24
2022-11-17T09:47:18.435Z,4.60
2022-11-17T09:49:58.717Z,4.62
2022-11-17T09:52:42.031Z,4.46
2022-11-17T09:55:40.012Z,4.35
2022-11-17T09:58:13.415Z,4.25
2022-11-17T10:00:41.189Z,5.02
2022-11-17T10:03:12.470Z,5.57
2022-11-17T10:05:40.499Z,5.59
2022-11-17T10:08:08.684Z,5.46
2022-11-17T10:10:43.759Z,5.22
2022-11-17T10:13:35.872Z,4.96
2022-11-17T10:16:05.688Z,4.42
2022-11-17T10:18:38.404Z,3.94
2022-11-17T10:21:06.967Z,4.29
2022-11-17T10:23:45.808Z,4.91
2022-11-17T10:26:14.674Z,4.98
2022-11-17T10:28:42.350Z,4.73
